createdAt,value
2023-09-04T04:00:38.394Z,8.89
2023-09-04T04:04:42.588Z,8.92
2023-09-04T04:08:46.386Z,8.93
2023-09-04T04:12:52.507Z,8.88
2023-09-04T04:16:55.884Z,8.86
2023-09-04T04:21:00.354Z,8.81
2023-09-04T04:25:02.995Z,8.89
2023-09-04T04:29:05.806Z,9.00
2023-09-04T04:33:08.944Z,8.97
2023-09-04T04:37:13.613Z,8.99
2023-09-04T04:41:16.386Z,9.01
2023-09-04T04:45:19.328Z,8.96
2023-09-04T04:49:23.338Z,8.91
2023-09-04T04:53:28.375Z,8.96
2023-09-04T04:57:30.991Z,9.18
2023-09-04T05:01:33.715Z,9.37
2023-09-04T05:05:36.882Z,9.54
2023-09-04T05:09:41.212Z,9.61
2023-09-04T05:13:45.376Z,9.58
2023-09-04T05:17:49.255Z,9.54
2023-09-04T05:21:56.925Z,9.51
2023-09-04T05:26:02.147Z,9.58
2023-09-04T05:30:05.915Z,9.70
2023-09-04T05:34:08.546Z,9.78
2023-09-04T05:38:11.179Z,9.94
2023-09-04T05:42:15.169Z,10.02
2023-09-04T05:46:17.853Z,10.20
2023-09-04T05:50:20.734Z,10.33
2023-09-04T05:54:24.118Z,10.45
2023-09-04T05:58:28.090Z,10.65
2023-09-04T06:02:30.771Z,10.83
2023-09-04T06:06:33.719Z,11.11
2023-09-04T06:10:36.375Z,11.31
2023-09-04T06:14:40.603Z,11.47
2023-09-04T06:18:43.221Z,11.57
2023-09-04T06:22:45.910Z,11.72
2023-09-04T06:26:48.544Z,11.86
2023-09-04T06:30:52.544Z,12.08
2023-09-04T06:34:55.227Z,12.23
2023-09-04T06:38:57.882Z,12.41
2023-09-04T06:43:00.529Z,12.55
2023-09-04T06:47:04.596Z,12.74
2023-09-04T06:51:07.603Z,12.86
2023-09-04T06:55:11.033Z,13.04
2023-09-04T06:59:13.541Z,13.22
2023-09-04T07:03:17.535Z,13.37
2023-09-04T07:07:20.166Z,13.63
2023-09-04T07:11:23.351Z,13.81
2023-09-04T07:15:26.052Z,14.01
2023-09-04T07:19:30.037Z,14.22
2023-09-04T07:23:33.088Z,14.46
2023-09-04T07:27:35.896Z,14.63
2023-09-04T07:31:38.576Z,14.88
2023-09-04T07:35:42.713Z,15.08
2023-09-04T07:39:45.469Z,15.29
2023-09-04T07:43:48.206Z,15.47
2023-09-04T07:47:50.892Z,15.77
2023-09-04T07:51:54.873Z,15.98
2023-09-04T07:55:57.623Z,16.20
2023-09-04T08:00:00.968Z,16.46
2023-09-04T08:04:03.790Z,16.70
2023-09-04T08:08:10.610Z,16.91
2023-09-04T08:12:13.300Z,17.08
2023-09-04T08:16:16.529Z,17.24
2023-09-04T08:20:19.675Z,17.53
2023-09-04T08:24:24.173Z,17.84
2023-09-04T08:28:26.817Z,18.20
2023-09-04T08:32:29.589Z,18.58
2023-09-04T08:36:32.233Z,18.80
2023-09-04T08:40:37.012Z,19.02
2023-09-04T08:44:41.878Z,19.22
2023-09-04T08:48:46.146Z,19.46
2023-09-04T08:52:49.010Z,19.79
2023-09-04T08:56:53.179Z,19.93
2023-09-04T09:00:55.890Z,20.25
2023-09-04T09:04:58.843Z,20.40
2023-09-04T09:09:02.383Z,20.55
2023-09-04T09:13:06.477Z,20.72
2023-09-04T09:17:14.507Z,20.81
2023-09-04T09:21:27.623Z,21.00
2023-09-04T09:25:30.330Z,21.22
2023-09-04T09:29:34.818Z,21.19
2023-09-04T09:33:37.555Z,21.19
2023-09-04T09:37:40.172Z,21.21
2023-09-04T09:41:42.832Z,21.36
2023-09-04T09:45:46.902Z,21.35
2023-09-04T09:49:49.909Z,21.61
2023-09-04T09:53:53.102Z,21.57
2023-09-04T09:57:55.983Z,21.78
2023-09-04T10:02:02.262Z,21.90
2023-09-04T10:06:06.633Z,21.92
2023-09-04T10:10:12.500Z,22.05
2023-09-04T10:14:22.273Z,22.21
2023-09-04T10:18:31.490Z,22.23
2023-09-04T10:22:37.498Z,22.27
2023-09-04T10:26:48.619Z,22.29
2023-09-04T10:30:54.505Z,22.31
2023-09-04T10:34:58.774Z,22.46
2023-09-04T10:39:03.468Z,22.35
2023-09-04T10:43:06.267Z,22.44
2023-09-04T10:47:08.954Z,22.66
2023-09-04T10:51:29.334Z,22.90
2023-09-04T10:55:32.929Z,22.91
2023-09-04T11:00:02.931Z,23.06
2023-09-04T11:04:08.518Z,23.25
2023-09-04T11:08:30.642Z,23.44
2023-09-04T11:12:35.153Z,23.36
2023-09-04T11:16:40.163Z,23.43
2023-09-04T11:20:47.484Z,23.44
2023-09-04T11:24:54.237Z,23.65
2023-09-04T11:28:59.540Z,23.77
2023-09-04T11:33:02.923Z,23.80
2023-09-04T11:37:06.322Z,23.94
2023-09-04T11:41:17.698Z,23.94
2023-09-04T11:45:20.394Z,24.09
2023-09-04T11:49:23.073Z,24.09
2023-09-04T11:53:26.444Z,23.95
2023-09-04T11:57:30.757Z,24.23
2023-09-04T12:01:33.437Z,24.32
2023-09-04T12:05:36.911Z,24.38
2023-09-04T12:09:39.462Z,24.39
2023-09-04T12:13:44.107Z,24.50
2023-09-04T12:17:50.934Z,24.72
2023-09-04T12:21:54.081Z,24.60
2023-09-04T12:25:57.344Z,24.59
2023-09-04T12:30:01.542Z,24.82
2023-09-04T12:34:05.375Z,25.00
2023-09-04T12:38:08.245Z,24.99
2023-09-04T12:42:10.944Z,24.98
2023-09-04T12:46:15.039Z,25.00
2023-09-04T12:50:17.730Z,25.13
2023-09-04T12:54:20.368Z,25.20
2023-09-04T12:58:22.990Z,25.20
2023-09-04T13:02:27.051Z,25.14
2023-09-04T13:06:31.403Z,25.18
2023-09-04T13:10:34.437Z,25.30
2023-09-04T13:14:37.741Z,25.41
2023-09-04T13:18:41.712Z,25.57
2023-09-04T13:22:45.411Z,25.56
2023-09-04T13:26:48.017Z,25.44
2023-09-04T13:30:50.864Z,25.26
2023-09-04T13:34:55.598Z,25.28
2023-09-04T13:38:58.275Z,25.39
2023-09-04T13:43:00.936Z,25.62
2023-09-04T13:47:04.967Z,25.65
2023-09-04T13:51:08.970Z,25.77
2023-09-04T13:55:13.047Z,25.94
2023-09-04T13:59:15.703Z,26.03
2023-09-04T14:03:18.360Z,26.25
2023-09-04T14:07:22.493Z,26.41
2023-09-04T14:11:25.146Z,26.53
2023-09-04T14:15:27.637Z,26.67
2023-09-04T14:19:30.364Z,26.82
2023-09-04T14:23:34.210Z,26.81
2023-09-04T14:27:37.175Z,27.03
2023-09-04T14:31:39.855Z,27.09
2023-09-04T14:35:42.542Z,27.31
2023-09-04T14:39:46.390Z,27.68
2023-09-04T14:43:49.019Z,27.70
2023-09-04T14:47:51.529Z,27.70
2023-09-04T14:51:54.337Z,27.80
2023-09-04T14:55:59.202Z,27.62
2023-09-04T15:00:01.878Z,27.91
2023-09-04T15:04:05.102Z,28.16
2023-09-04T15:08:07.959Z,28.21
2023-09-04T15:12:12.956Z,28.53
2023-09-04T15:16:15.917Z,28.25
2023-09-04T15:20:18.548Z,28.38
2023-09-04T15:24:21.216Z,28.43
2023-09-04T15:28:26.371Z,28.62
2023-09-04T15:32:29.299Z,28.61
2023-09-04T15:36:32.332Z,28.49
2023-09-04T15:40:35.352Z,28.48
2023-09-04T15:44:39.418Z,28.78
2023-09-04T15:48:42.161Z,28.73
2023-09-04T15:52:44.859Z,28.73
2023-09-04T15:56:47.525Z,28.49
2023-09-04T16:00:51.665Z,28.09
2023-09-04T16:04:54.334Z,28.37
2023-09-04T16:08:57.034Z,28.63
2023-09-04T16:12:59.720Z,28.54
2023-09-04T16:17:03.789Z,28.55
2023-09-04T16:21:06.447Z,28.67
2023-09-04T16:25:09.385Z,28.25
2023-09-04T16:29:12.032Z,27.84
2023-09-04T16:33:16.096Z,27.88
2023-09-04T16:37:21.226Z,27.85
2023-09-04T16:41:23.892Z,27.71
2023-09-04T16:45:26.569Z,27.94
2023-09-04T16:49:30.590Z,28.05
2023-09-04T16:53:33.231Z,28.16
2023-09-04T16:57:35.872Z,28.11
2023-09-04T17:01:38.520Z,27.88
2023-09-04T17:05:42.508Z,27.63
2023-09-04T17:09:45.164Z,27.78
2023-09-04T17:13:47.822Z,27.85
2023-09-04T17:17:50.490Z,27.49
2023-09-04T17:21:54.491Z,26.98
2023-09-04T17:26:02.218Z,26.58
2023-09-04T17:30:06.586Z,25.95
2023-09-04T17:34:09.256Z,25.40
2023-09-04T17:38:13.265Z,24.98
2023-09-04T17:42:16.305Z,24.57
2023-09-04T17:46:18.958Z,24.15
2023-09-04T17:50:21.461Z,23.69
2023-09-04T17:54:25.458Z,23.31
2023-09-04T17:58:29.613Z,22.84
2023-09-04T18:02:32.459Z,22.51
2023-09-04T18:06:35.572Z,22.22
2023-09-04T18:10:41.885Z,21.98
2023-09-04T18:14:44.508Z,21.83
2023-09-04T18:18:47.151Z,21.58
2023-09-04T18:22:49.820Z,21.49
2023-09-04T18:26:53.783Z,21.30
2023-09-04T18:30:56.483Z,21.17
2023-09-04T18:35:00.546Z,21.22
2023-09-04T18:39:03.208Z,21.13
2023-09-04T18:43:07.172Z,20.82
2023-09-04T18:47:12.569Z,20.26
2023-09-04T18:51:15.210Z,20.22
2023-09-04T18:55:18.884Z,20.04
2023-09-04T18:59:24.865Z,19.76
2023-09-04T19:03:27.630Z,19.67
2023-09-04T19:07:31.220Z,19.53
2023-09-04T19:11:33.869Z,19.30
2023-09-04T19:15:37.912Z,19.13
2023-09-04T19:19:40.527Z,19.03
2023-09-04T19:23:43.536Z,18.79
2023-09-04T19:27:46.297Z,18.45
2023-09-04T19:31:51.031Z,18.04
2023-09-04T19:35:53.671Z,17.80
2023-09-04T19:40:05.052Z,17.60
2023-09-04T19:44:08.602Z,17.65
2023-09-04T19:48:12.589Z,17.73
2023-09-04T19:52:15.208Z,17.74
2023-09-04T19:56:17.840Z,17.52
2023-09-04T20:00:21.338Z,17.33
2023-09-04T20:04:25.288Z,17.26
2023-09-04T20:08:28.090Z,17.21
2023-09-04T20:12:30.774Z,17.07
2023-09-04T20:16:33.426Z,17.12
2023-09-04T20:20:37.408Z,17.01
2023-09-04T20:24:40.042Z,16.72
2023-09-04T20:28:42.656Z,16.59
2023-09-04T20:32:45.685Z,16.44
2023-09-04T20:36:50.172Z,16.32
2023-09-04T20:40:54.295Z,16.15
2023-09-04T20:44:56.958Z,16.02
2023-09-04T20:48:59.633Z,16.00
2023-09-04T20:53:05.389Z,15.98
2023-09-04T20:57:08.071Z,15.86
